Fort Steele, Wyoming
Current Conditions -  °F | °C
As of 1:53 PM on Monday 24 Nov 2014 (Local Time) from KRWL Reporting Station
Few Clouds Few Clouds  
Wind Chill: 16°   Ceiling: Unl
Heat Index: 29°   Visibility: 10mi
Dew Point: 15°   Wind: 21mph
Humidity: 56%   Direction: 320°NW
Pressure: 30.12"   Gusts: NA
Location:  41.7532°N, 107.372°W
Report Text: KRWL 242053Z AUTO 32018KT 10SM FEW065 M02/M09 A3012 RMK AO2 PK WND 32034/2003 SLP230 60000 T10171094 53017
Loading
Personal Weather Stations






























Interactive Weather Map New forecast layout! Learn more

10-Day Weather Forecast

Advertisements
Track Severe Weather on mobile